createdAt,value
2022-08-24T00:00:58.495Z,0.00
2022-08-24T00:01:58.701Z,0.00
2022-08-24T00:02:58.626Z,0.00
2022-08-24T00:03:59.583Z,0.00
2022-08-24T00:04:58.425Z,0.00
2022-08-24T00:05:58.406Z,0.00
2022-08-24T00:06:58.405Z,0.00
2022-08-24T00:07:59.300Z,0.00
2022-08-24T00:08:58.387Z,0.00
2022-08-24T00:09:58.378Z,0.00
2022-08-24T00:10:58.360Z,0.00
2022-08-24T00:11:59.276Z,0.00
2022-08-24T00:12:58.359Z,0.00
2022-08-24T00:13:58.321Z,0.00
2022-08-24T00:14:58.313Z,0.00
2022-08-24T00:15:58.295Z,0.00
2022-08-24T00:16:58.354Z,0.00
2022-08-24T00:17:59.282Z,0.00
2022-08-24T00:18:59.385Z,0.00
2022-08-24T00:19:58.283Z,0.00
2022-08-24T00:20:58.742Z,0.00
2022-08-24T00:21:58.235Z,0.00
2022-08-24T00:22:58.218Z,0.00
2022-08-24T00:23:58.235Z,0.00
2022-08-24T00:24:58.212Z,0.00
2022-08-24T00:25:58.197Z,0.00
2022-08-24T00:26:58.199Z,0.00
2022-08-24T00:28:04.970Z,0.00
2022-08-24T00:28:58.191Z,0.00
2022-08-24T00:29:58.321Z,0.00
2022-08-24T00:30:58.144Z,0.00
2022-08-24T00:31:58.207Z,0.00
2022-08-24T00:32:58.127Z,0.00
2022-08-24T00:33:58.741Z,0.00
2022-08-24T00:34:59.157Z,0.00
2022-08-24T00:35:58.093Z,0.00
2022-08-24T00:36:58.076Z,0.00
2022-08-24T00:37:58.113Z,0.00
2022-08-24T00:38:58.045Z,0.00
2022-08-24T00:39:58.177Z,0.00
2022-08-24T00:40:58.746Z,0.00
2022-08-24T00:41:58.020Z,0.00
2022-08-24T00:42:58.024Z,0.00
2022-08-24T00:43:58.015Z,0.00
2022-08-24T00:44:57.989Z,0.00
2022-08-24T00:45:58.312Z,0.00
2022-08-24T00:46:57.967Z,0.00
2022-08-24T00:48:00.754Z,0.00
2022-08-24T00:48:57.953Z,0.00
2022-08-24T00:49:58.757Z,0.00
2022-08-24T00:50:57.954Z,0.00
2022-08-24T00:51:57.926Z,0.00
2022-08-24T00:53:00.748Z,0.00
2022-08-24T00:53:57.890Z,0.00
2022-08-24T00:54:57.890Z,0.00
2022-08-24T00:55:57.877Z,0.00
2022-08-24T00:56:57.879Z,0.00
2022-08-24T00:57:57.845Z,0.00
2022-08-24T00:58:57.849Z,0.00
2022-08-24T00:59:57.815Z,0.00
2022-08-24T01:00:57.965Z,0.00
2022-08-24T01:01:57.836Z,0.00
2022-08-24T01:02:58.847Z,0.00
2022-08-24T01:03:57.778Z,0.00
2022-08-24T01:04:57.781Z,0.00
2022-08-24T01:05:57.748Z,0.00
2022-08-24T01:06:57.748Z,0.00
2022-08-24T01:07:57.844Z,0.00
2022-08-24T01:08:58.253Z,0.00
2022-08-24T01:10:00.279Z,0.00
2022-08-24T01:10:57.709Z,0.00
2022-08-24T01:11:57.732Z,0.00
2022-08-24T01:13:00.990Z,0.00
2022-08-24T01:13:58.253Z,0.00
2022-08-24T01:15:00.256Z,0.00
2022-08-24T01:15:57.700Z,0.00
2022-08-24T01:16:57.641Z,0.00
2022-08-24T01:17:57.714Z,0.00
2022-08-24T01:18:57.642Z,0.00
2022-08-24T01:19:57.616Z,0.00
2022-08-24T01:20:57.602Z,0.00
2022-08-24T01:21:57.596Z,0.00
2022-08-24T01:22:57.568Z,0.00
2022-08-24T01:23:57.792Z,0.00
2022-08-24T01:24:57.559Z,0.00
2022-08-24T01:25:57.575Z,0.00
2022-08-24T01:26:57.536Z,0.00
2022-08-24T01:27:57.583Z,0.00
2022-08-24T01:28:57.789Z,0.00
2022-08-24T01:29:57.505Z,0.00
2022-08-24T01:30:57.577Z,0.00
2022-08-24T01:31:57.481Z,0.00
2022-08-24T01:32:57.471Z,0.00
2022-08-24T01:33:57.457Z,0.00
2022-08-24T01:34:57.455Z,0.00
2022-08-24T01:35:57.443Z,0.00
2022-08-24T01:36:57.421Z,0.00
2022-08-24T01:37:57.411Z,0.00
2022-08-24T01:38:57.796Z,0.00
2022-08-24T01:39:57.454Z,0.00
2022-08-24T01:40:57.383Z,0.00
2022-08-24T01:41:58.258Z,0.00
2022-08-24T01:42:57.372Z,0.00
2022-08-24T01:43:57.348Z,0.00
2022-08-24T01:44:57.358Z,0.00
2022-08-24T01:45:57.342Z,0.00
2022-08-24T01:46:57.372Z,0.00
2022-08-24T01:47:57.384Z,0.00
2022-08-24T01:48:57.299Z,0.00
2022-08-24T01:49:57.305Z,0.00
2022-08-24T01:50:57.303Z,0.00
2022-08-24T01:51:57.245Z,0.00
2022-08-24T01:53:05.761Z,0.00
2022-08-24T01:53:58.764Z,0.00
2022-08-24T01:54:57.233Z,0.00
2022-08-24T01:55:57.226Z,0.00
2022-08-24T01:56:57.227Z,0.00
2022-08-24T01:57:57.198Z,0.00
2022-08-24T01:58:57.196Z,0.00
2022-08-24T01:59:57.779Z,0.00
2022-08-24T02:00:57.183Z,0.00
2022-08-24T02:01:57.244Z,0.00
2022-08-24T02:02:57.323Z,0.00
2022-08-24T02:03:57.136Z,0.00
2022-08-24T02:04:57.126Z,0.00
2022-08-24T02:05:57.115Z,0.00
2022-08-24T02:06:57.127Z,0.00
2022-08-24T02:07:57.083Z,0.00
2022-08-24T02:08:59.781Z,0.00
2022-08-24T02:09:57.066Z,0.00
2022-08-24T02:10:58.086Z,0.00
2022-08-24T02:11:57.062Z,0.00
2022-08-24T02:12:57.350Z,0.00
2022-08-24T02:13:57.027Z,0.00
2022-08-24T02:14:57.017Z,0.00
2022-08-24T02:15:57.037Z,0.00
2022-08-24T02:16:56.992Z,0.00
2022-08-24T02:17:57.012Z,0.00
2022-08-24T02:18:56.964Z,0.00
2022-08-24T02:19:57.773Z,0.00
2022-08-24T02:20:56.944Z,0.00
2022-08-24T02:21:56.934Z,0.00
2022-08-24T02:22:56.972Z,0.00
2022-08-24T02:23:56.934Z,0.00
2022-08-24T02:24:56.901Z,0.00
2022-08-24T02:25:56.895Z,0.00
2022-08-24T02:26:56.880Z,0.00
2022-08-24T02:27:56.870Z,0.00
2022-08-24T02:28:56.870Z,0.00
2022-08-24T02:29:56.847Z,0.00
2022-08-24T02:30:56.870Z,0.00
2022-08-24T02:31:56.831Z,0.00
2022-08-24T02:32:56.811Z,0.00
2022-08-24T02:33:56.828Z,0.00
2022-08-24T02:34:56.763Z,0.00
2022-08-24T02:35:56.781Z,0.00
2022-08-24T02:36:56.773Z,0.00
2022-08-24T02:37:56.742Z,0.00
2022-08-24T02:38:56.768Z,0.00
2022-08-24T02:39:56.743Z,0.00
2022-08-24T02:41:03.273Z,0.00
2022-08-24T02:41:56.718Z,0.00
2022-08-24T02:42:56.700Z,0.00
2022-08-24T02:43:56.678Z,0.00
2022-08-24T02:44:56.678Z,0.00
2022-08-24T02:45:56.679Z,0.00
2022-08-24T02:46:56.676Z,0.00
2022-08-24T02:47:56.636Z,0.00
2022-08-24T02:48:56.655Z,0.00
2022-08-24T02:49:57.628Z,0.00
2022-08-24T02:50:56.610Z,0.00
2022-08-24T02:51:56.593Z,0.00
2022-08-24T02:52:56.624Z,0.00
2022-08-24T02:53:56.591Z,0.00
2022-08-24T02:54:56.565Z,0.00
2022-08-24T02:55:56.547Z,0.00
2022-08-24T02:56:56.548Z,0.00
2022-08-24T02:57:56.547Z,0.00
2022-08-24T02:58:59.276Z,0.00
2022-08-24T02:59:56.501Z,0.00
2022-08-24T03:00:56.505Z,0.00
2022-08-24T03:01:56.523Z,0.00
2022-08-24T03:02:56.557Z,0.00
2022-08-24T03:03:59.275Z,0.00
2022-08-24T03:04:56.498Z,0.00
2022-08-24T03:05:56.429Z,0.00
2022-08-24T03:06:57.287Z,0.00
2022-08-24T03:07:56.419Z,0.00
2022-08-24T03:08:56.968Z,0.00
2022-08-24T03:09:56.420Z,0.00
2022-08-24T03:10:56.385Z,0.00
2022-08-24T03:11:56.383Z,0.00
2022-08-24T03:12:59.028Z,0.00
2022-08-24T03:13:56.361Z,0.00
2022-08-24T03:14:56.377Z,0.00
2022-08-24T03:15:56.352Z,0.00
2022-08-24T03:16:56.325Z,0.00
2022-08-24T03:17:56.304Z,0.00
2022-08-24T03:18:57.278Z,0.00
2022-08-24T03:20:03.276Z,0.00
2022-08-24T03:20:56.301Z,0.00
2022-08-24T03:21:56.300Z,0.00
2022-08-24T03:23:02.925Z,0.00
2022-08-24T03:23:56.238Z,0.00
2022-08-24T03:24:56.239Z,0.00
2022-08-24T03:25:56.222Z,0.00
2022-08-24T03:26:56.315Z,0.00
2022-08-24T03:27:56.217Z,0.00
2022-08-24T03:28:56.790Z,0.00
2022-08-24T03:29:56.174Z,0.00
2022-08-24T03:30:56.181Z,0.00
2022-08-24T03:31:56.165Z,0.00
2022-08-24T03:32:56.787Z,0.00
2022-08-24T03:33:56.134Z,0.00
2022-08-24T03:35:02.784Z,0.00
2022-08-24T03:35:56.123Z,0.00
2022-08-24T03:36:56.336Z,0.00
2022-08-24T03:37:58.778Z,0.00
2022-08-24T03:38:56.789Z,0.00
2022-08-24T03:39:56.172Z,0.00
2022-08-24T03:40:56.779Z,0.00
2022-08-24T03:41:56.052Z,0.00
2022-08-24T03:42:56.063Z,0.00
2022-08-24T03:43:56.310Z,0.00
2022-08-24T03:44:56.018Z,0.00
2022-08-24T03:45:56.051Z,0.00
2022-08-24T03:46:56.816Z,0.00
2022-08-24T03:47:56.326Z,0.00
2022-08-24T03:48:55.977Z,0.00
2022-08-24T03:49:56.118Z,0.00
2022-08-24T03:50:55.949Z,0.00
2022-08-24T03:51:56.134Z,0.00
2022-08-24T03:52:55.931Z,0.00
2022-08-24T03:53:56.312Z,0.00
2022-08-24T03:54:56.940Z,0.00
2022-08-24T03:55:55.915Z,0.00
2022-08-24T03:56:58.791Z,4.00
2022-08-24T03:57:55.885Z,4.00
2022-08-24T03:58:55.885Z,0.00
2022-08-24T03:59:55.881Z,4.00
2022-08-24T04:00:56.070Z,4.00
2022-08-24T04:01:55.988Z,4.00
2022-08-24T04:02:55.864Z,4.00
2022-08-24T04:03:55.801Z,4.00
2022-08-24T04:04:55.825Z,4.00
2022-08-24T04:05:55.797Z,8.00
2022-08-24T04:06:55.810Z,8.00
2022-08-24T04:07:56.287Z,12.00
2022-08-24T04:09:02.286Z,12.00
2022-08-24T04:09:55.778Z,16.00
2022-08-24T04:10:55.730Z,12.00
2022-08-24T04:11:55.748Z,16.00
2022-08-24T04:12:55.705Z,16.00
2022-08-24T04:13:55.715Z,20.00
2022-08-24T04:14:55.704Z,24.00
2022-08-24T04:15:55.741Z,28.00
2022-08-24T04:16:57.886Z,28.00
2022-08-24T04:17:55.698Z,36.00
2022-08-24T04:18:56.298Z,40.00
2022-08-24T04:19:55.644Z,44.00
2022-08-24T04:20:55.651Z,48.00
2022-08-24T04:21:55.814Z,56.00
2022-08-24T04:22:55.649Z,64.00
2022-08-24T04:23:55.619Z,68.00
2022-08-24T04:24:55.590Z,76.00
2022-08-24T04:25:55.602Z,84.00
2022-08-24T04:27:02.295Z,88.00
2022-08-24T04:27:55.575Z,100.00
2022-08-24T04:28:55.559Z,108.00
2022-08-24T04:29:55.537Z,116.00
2022-08-24T04:30:55.559Z,128.00
2022-08-24T04:31:55.613Z,136.00
2022-08-24T04:32:55.542Z,148.00
2022-08-24T04:33:55.489Z,160.00
2022-08-24T04:34:55.490Z,168.00
2022-08-24T04:35:55.476Z,180.00
2022-08-24T04:36:55.462Z,192.00
2022-08-24T04:37:55.472Z,208.00
2022-08-24T04:38:55.445Z,220.00
2022-08-24T04:39:55.498Z,232.00
2022-08-24T04:40:55.423Z,248.00
2022-08-24T04:41:57.505Z,256.00
2022-08-24T04:42:56.419Z,272.00
2022-08-24T04:43:55.392Z,288.00
2022-08-24T04:44:55.387Z,304.00
2022-08-24T04:45:56.438Z,320.00
2022-08-24T04:46:55.361Z,332.00
2022-08-24T04:47:55.372Z,348.00
2022-08-24T04:48:56.284Z,364.00
2022-08-24T04:49:55.351Z,380.00
2022-08-24T04:50:55.313Z,396.00
2022-08-24T04:51:56.299Z,412.00
2022-08-24T04:52:55.298Z,428.00
2022-08-24T04:53:55.314Z,444.00
2022-08-24T04:54:55.283Z,460.00
2022-08-24T04:55:57.801Z,476.00
2022-08-24T04:56:55.267Z,488.00
2022-08-24T04:57:55.245Z,504.00
2022-08-24T04:58:55.254Z,520.00
2022-08-24T04:59:55.223Z,536.00
2022-08-24T05:00:55.300Z,548.00
2022-08-24T05:01:55.279Z,564.00
2022-08-24T05:02:56.229Z,580.00
2022-08-24T05:03:55.204Z,596.00
2022-08-24T05:04:55.193Z,612.00
2022-08-24T05:05:57.794Z,628.00
2022-08-24T05:06:55.209Z,640.00
2022-08-24T05:07:56.696Z,656.00
2022-08-24T05:08:55.143Z,668.00
2022-08-24T05:09:55.117Z,680.00
2022-08-24T05:10:56.101Z,696.00
2022-08-24T05:11:55.098Z,708.00
2022-08-24T05:12:55.094Z,724.00
2022-08-24T05:13:55.088Z,740.00
2022-08-24T05:14:55.090Z,752.00
2022-08-24T05:15:55.094Z,764.00
2022-08-24T05:16:56.110Z,776.00
2022-08-24T05:17:56.290Z,796.00
2022-08-24T05:18:55.815Z,804.00
2022-08-24T05:19:55.010Z,820.00
2022-08-24T05:20:54.995Z,828.00
2022-08-24T05:21:54.991Z,840.00
2022-08-24T05:22:59.970Z,848.00
2022-08-24T05:23:54.990Z,864.00
2022-08-24T05:24:57.799Z,872.00
2022-08-24T05:25:57.800Z,888.00
2022-08-24T05:26:54.950Z,896.00
2022-08-24T05:27:54.931Z,908.00
2022-08-24T05:28:54.916Z,920.00
2022-08-24T05:29:56.972Z,932.00
2022-08-24T05:30:54.893Z,940.00
2022-08-24T05:31:54.908Z,952.00
2022-08-24T05:32:54.872Z,960.00
2022-08-24T05:33:54.864Z,968.00
2022-08-24T05:34:54.851Z,980.00
2022-08-24T05:35:55.337Z,988.00
2022-08-24T05:36:54.859Z,1000.00
2022-08-24T05:37:54.817Z,1008.00
2022-08-24T05:38:54.807Z,1016.00
2022-08-24T05:39:54.846Z,1028.00
2022-08-24T05:40:54.795Z,1036.00
2022-08-24T05:41:54.778Z,1044.00
2022-08-24T05:42:54.785Z,1056.00
2022-08-24T05:43:57.305Z,1060.00
2022-08-24T05:44:54.747Z,1072.00
2022-08-24T05:45:54.740Z,1080.00
2022-08-24T05:46:54.893Z,1092.00
2022-08-24T05:47:54.717Z,1096.00
2022-08-24T05:48:54.692Z,1104.00
2022-08-24T05:49:55.306Z,1108.00
2022-08-24T05:50:55.304Z,1116.00
2022-08-24T05:51:54.672Z,1128.00
2022-08-24T05:52:54.682Z,1132.00
2022-08-24T05:53:54.696Z,1140.00
2022-08-24T05:54:54.634Z,1144.00
2022-08-24T05:55:55.314Z,1152.00
2022-08-24T05:56:54.617Z,1164.00
2022-08-24T05:57:54.609Z,1172.00
2022-08-24T05:58:54.615Z,1180.00
2022-08-24T05:59:55.342Z,1192.00
2022-08-24T06:00:54.568Z,1200.00
2022-08-24T06:01:54.711Z,1208.00
2022-08-24T06:02:54.626Z,1220.00
2022-08-24T06:03:54.573Z,1228.00
2022-08-24T06:04:55.306Z,1236.00
2022-08-24T06:05:55.311Z,1244.00
2022-08-24T06:06:54.505Z,1248.00
2022-08-24T06:07:55.316Z,1256.00
2022-08-24T06:08:54.492Z,1260.00
2022-08-24T06:09:54.500Z,1264.00
2022-08-24T06:10:54.472Z,1272.00
2022-08-24T06:11:55.310Z,1276.00
2022-08-24T06:12:54.447Z,1280.00
2022-08-24T06:13:59.307Z,1288.00
2022-08-24T06:14:54.829Z,1292.00
2022-08-24T06:16:19.631Z,1296.00
2022-08-24T06:16:56.569Z,1300.00
2022-08-24T06:17:54.566Z,1308.00
2022-08-24T06:18:54.411Z,1316.00
2022-08-24T06:19:54.390Z,1320.00
2022-08-24T06:20:57.246Z,1328.00
2022-08-24T06:21:54.362Z,1332.00
2022-08-24T06:22:54.335Z,1340.00
2022-08-24T06:23:54.326Z,1344.00
2022-08-24T06:24:54.346Z,1348.00
2022-08-24T06:25:56.815Z,1352.00
2022-08-24T06:26:54.807Z,1360.00
2022-08-24T06:27:54.296Z,1364.00
2022-08-24T06:28:54.271Z,1372.00
2022-08-24T06:30:15.308Z,1372.00
2022-08-24T06:30:54.283Z,1380.00
2022-08-24T06:31:56.880Z,1380.00
2022-08-24T06:32:54.237Z,1384.00
2022-08-24T06:33:54.227Z,1388.00
2022-08-24T06:34:54.206Z,1392.00
2022-08-24T06:35:54.226Z,1392.00
2022-08-24T06:36:54.192Z,1396.00
2022-08-24T06:37:54.181Z,1400.00
2022-08-24T06:38:54.155Z,1400.00
2022-08-24T06:39:54.907Z,1404.00
2022-08-24T06:40:54.810Z,1404.00
2022-08-24T06:41:54.149Z,1400.00
2022-08-24T06:42:54.818Z,1384.00
2022-08-24T06:43:54.813Z,1372.00
2022-08-24T06:44:54.110Z,1352.00
2022-08-24T06:45:54.343Z,1364.00
2022-08-24T06:46:54.117Z,1380.00
2022-08-24T06:47:54.067Z,1392.00
2022-08-24T06:48:54.810Z,1388.00
2022-08-24T06:49:56.830Z,1400.00
2022-08-24T06:50:54.043Z,1420.00
2022-08-24T06:51:54.029Z,1452.00
2022-08-24T06:52:54.818Z,1452.00
2022-08-24T06:53:54.017Z,1464.00
2022-08-24T06:54:53.983Z,1492.00
2022-08-24T06:55:53.989Z,1500.00
2022-08-24T06:56:53.965Z,1512.00
2022-08-24T06:57:53.964Z,1520.00
2022-08-24T06:58:53.975Z,1528.00
2022-08-24T06:59:53.939Z,1532.00
2022-08-24T07:00:53.920Z,1536.00
2022-08-24T07:01:53.942Z,1540.00
2022-08-24T07:02:53.960Z,1544.00
2022-08-24T07:03:53.883Z,1548.00
2022-08-24T07:04:54.347Z,1552.00
2022-08-24T07:05:53.859Z,1556.00
2022-08-24T07:06:53.875Z,1560.00
2022-08-24T07:07:53.855Z,1564.00
2022-08-24T07:08:53.827Z,1572.00
2022-08-24T07:09:53.825Z,1572.00
2022-08-24T07:10:53.848Z,1580.00
2022-08-24T07:12:00.336Z,1584.00
2022-08-24T07:12:54.316Z,1592.00
2022-08-24T07:13:53.785Z,1604.00
2022-08-24T07:14:53.763Z,1616.00
2022-08-24T07:15:53.818Z,1628.00
2022-08-24T07:16:53.756Z,1644.00
2022-08-24T07:17:53.728Z,1668.00
2022-08-24T07:18:53.839Z,1688.00
2022-08-24T07:19:53.714Z,1708.00
2022-08-24T07:20:53.741Z,1736.00
2022-08-24T07:21:54.316Z,1764.00
2022-08-24T07:22:53.691Z,1792.00
2022-08-24T07:23:53.669Z,1816.00
2022-08-24T07:24:56.330Z,1840.00
2022-08-24T07:25:56.322Z,1868.00
2022-08-24T07:26:53.861Z,1892.00
2022-08-24T07:27:53.628Z,1916.00
2022-08-24T07:28:54.324Z,1948.00
2022-08-24T07:30:26.424Z,1972.00
2022-08-24T07:30:54.675Z,2000.00
2022-08-24T07:31:54.331Z,2024.00
2022-08-24T07:32:53.610Z,2052.00
2022-08-24T07:33:53.562Z,2080.00
2022-08-24T07:34:53.560Z,2108.00
2022-08-24T07:35:55.117Z,2128.00
2022-08-24T07:36:53.552Z,2152.00
2022-08-24T07:38:01.605Z,2168.00
2022-08-24T07:38:54.505Z,2184.00
2022-08-24T07:39:53.600Z,2196.00
2022-08-24T07:41:20.316Z,2208.00
2022-08-24T07:42:13.327Z,2212.00
2022-08-24T07:42:57.326Z,2224.00
2022-08-24T07:43:53.479Z,2232.00
2022-08-24T07:44:53.453Z,2232.00
2022-08-24T07:45:54.380Z,2244.00
2022-08-24T07:46:53.506Z,2256.00
2022-08-24T07:47:55.809Z,2268.00
2022-08-24T07:49:04.960Z,2276.00
2022-08-24T07:49:54.392Z,2292.00
2022-08-24T07:50:53.382Z,2304.00
2022-08-24T07:51:53.379Z,2308.00
2022-08-24T07:52:54.377Z,2312.00
2022-08-24T07:53:54.379Z,2312.00
2022-08-24T07:54:54.378Z,2312.00
2022-08-24T07:55:53.320Z,2308.00
2022-08-24T07:56:53.319Z,2308.00
2022-08-24T07:57:53.314Z,2300.00
2022-08-24T07:58:55.833Z,2300.00
2022-08-24T07:59:53.298Z,2296.00
2022-08-24T08:00:53.295Z,2292.00
2022-08-24T08:01:53.292Z,2288.00
2022-08-24T08:02:53.286Z,2288.00
2022-08-24T08:03:53.275Z,2280.00
2022-08-24T08:04:55.829Z,2280.00
2022-08-24T08:05:53.228Z,2272.00
2022-08-24T08:06:53.323Z,2268.00
2022-08-24T08:07:53.829Z,2260.00
2022-08-24T08:08:53.174Z,2252.00
2022-08-24T08:09:53.201Z,2248.00
2022-08-24T08:10:53.166Z,2240.00
2022-08-24T08:11:53.170Z,2236.00
2022-08-24T08:12:53.120Z,2228.00
2022-08-24T08:13:55.827Z,2224.00
2022-08-24T08:14:53.364Z,2220.00
2022-08-24T08:15:57.970Z,2220.00
2022-08-24T08:16:54.092Z,2212.00
2022-08-24T08:17:55.702Z,2208.00
2022-08-24T08:19:09.379Z,2204.00
2022-08-24T08:19:54.362Z,2196.00
2022-08-24T08:20:53.056Z,2196.00
2022-08-24T08:21:53.042Z,2196.00
2022-08-24T08:22:53.035Z,2196.00
2022-08-24T08:23:53.018Z,2196.00
2022-08-24T08:24:53.007Z,2192.00
2022-08-24T08:25:53.037Z,2192.00
2022-08-24T08:26:52.991Z,2196.00
2022-08-24T08:27:52.983Z,2200.00
2022-08-24T08:28:52.992Z,2200.00
2022-08-24T08:29:53.834Z,2196.00
2022-08-24T08:30:53.047Z,2196.00
2022-08-24T08:31:52.934Z,2192.00
2022-08-24T08:32:52.930Z,2196.00
2022-08-24T08:33:52.918Z,2200.00
2022-08-24T08:34:53.381Z,2216.00
2022-08-24T08:35:53.832Z,2232.00
2022-08-24T08:36:52.899Z,2248.00
2022-08-24T08:37:52.912Z,2276.00
2022-08-24T08:38:53.841Z,2304.00
2022-08-24T08:39:52.884Z,2332.00
2022-08-24T08:40:52.850Z,2368.00
2022-08-24T08:41:52.836Z,2404.00
2022-08-24T08:42:53.334Z,2448.00
2022-08-24T08:43:52.839Z,2484.00
2022-08-24T08:44:53.340Z,2520.00
2022-08-24T08:45:55.398Z,2532.00
2022-08-24T08:46:53.808Z,2512.00
2022-08-24T08:47:52.797Z,2548.00
2022-08-24T08:48:52.795Z,2596.00
2022-08-24T08:49:52.762Z,2624.00
2022-08-24T08:50:52.739Z,2640.00
2022-08-24T08:51:52.744Z,2652.00
2022-08-24T08:52:52.739Z,2648.00
2022-08-24T08:53:52.717Z,2644.00
2022-08-24T08:54:55.343Z,2636.00
2022-08-24T08:55:53.444Z,2620.00
2022-08-24T08:56:57.292Z,2604.00
2022-08-24T08:57:53.708Z,2580.00
2022-08-24T08:58:57.167Z,2556.00
2022-08-24T08:59:53.638Z,2532.00
2022-08-24T09:00:52.646Z,2504.00
2022-08-24T09:01:52.682Z,2480.00
2022-08-24T09:02:52.606Z,2452.00
2022-08-24T09:03:52.700Z,2420.00
2022-08-24T09:04:52.674Z,2392.00
2022-08-24T09:05:52.615Z,2364.00
2022-08-24T09:06:52.585Z,2336.00
2022-08-24T09:07:53.678Z,2312.00
2022-08-24T09:08:55.345Z,2280.00
2022-08-24T09:09:52.536Z,2260.00
2022-08-24T09:10:52.513Z,2236.00
2022-08-24T09:11:52.506Z,2216.00
2022-08-24T09:12:52.498Z,2192.00
2022-08-24T09:13:52.551Z,2176.00
2022-08-24T09:14:53.346Z,2160.00
2022-08-24T09:15:53.245Z,2156.00
2022-08-24T09:16:53.553Z,2168.00
2022-08-24T09:17:52.461Z,2204.00
2022-08-24T09:18:52.887Z,2268.00
2022-08-24T09:19:52.427Z,2352.00
2022-08-24T09:20:53.420Z,2448.00
2022-08-24T09:21:54.271Z,2548.00
2022-08-24T09:22:52.391Z,2648.00
2022-08-24T09:23:52.369Z,2736.00
2022-08-24T09:24:52.897Z,2808.00
2022-08-24T09:25:52.364Z,2864.00
2022-08-24T09:26:52.376Z,2924.00
2022-08-24T09:27:52.338Z,2972.00
2022-08-24T09:28:52.329Z,3012.00
2022-08-24T09:29:52.306Z,3040.00
2022-08-24T09:30:54.942Z,3068.00
2022-08-24T09:31:52.314Z,3092.00
2022-08-24T09:32:52.290Z,3116.00
2022-08-24T09:33:54.845Z,3128.00
2022-08-24T09:34:53.293Z,3132.00
2022-08-24T09:35:52.266Z,3144.00
2022-08-24T09:36:52.849Z,3152.00
2022-08-24T09:37:52.239Z,3148.00
2022-08-24T09:38:52.421Z,3136.00
2022-08-24T09:39:52.892Z,3128.00
2022-08-24T09:40:52.191Z,3136.00
2022-08-24T09:41:52.200Z,3136.00
2022-08-24T09:42:52.178Z,3144.00
2022-08-24T09:43:52.381Z,3136.00
2022-08-24T09:44:52.163Z,3108.00
2022-08-24T09:45:52.143Z,3088.00
2022-08-24T09:46:52.155Z,3044.00
2022-08-24T09:47:52.119Z,3040.00
2022-08-24T09:48:52.117Z,3036.00
2022-08-24T09:49:52.090Z,2968.00
2022-08-24T09:50:52.103Z,3088.00
2022-08-24T09:51:52.079Z,3124.00
2022-08-24T09:52:52.072Z,3140.00
2022-08-24T09:53:52.065Z,3128.00
2022-08-24T09:54:54.854Z,3100.00
2022-08-24T09:55:52.038Z,3068.00
2022-08-24T09:56:59.864Z,3036.00
2022-08-24T09:58:01.512Z,3000.00
2022-08-24T09:58:53.004Z,2972.00
2022-08-24T09:59:53.005Z,2940.00
2022-08-24T10:00:52.018Z,2908.00
2022-08-24T10:01:51.999Z,2888.00
2022-08-24T10:02:54.863Z,2872.00
2022-08-24T10:03:51.942Z,2868.00
2022-08-24T10:04:52.038Z,2856.00
2022-08-24T10:05:52.037Z,2844.00
2022-08-24T10:06:51.941Z,2832.00
2022-08-24T10:07:51.913Z,2812.00
2022-08-24T10:08:52.389Z,2796.00
2022-08-24T10:09:52.881Z,2780.00
2022-08-24T10:10:51.878Z,2772.00
2022-08-24T10:11:51.863Z,2764.00
2022-08-24T10:12:56.137Z,2756.00
2022-08-24T10:13:58.359Z,2736.00
2022-08-24T10:14:52.892Z,2716.00
2022-08-24T10:15:51.807Z,2708.00
2022-08-24T10:16:51.886Z,2704.00
2022-08-24T10:17:52.365Z,2696.00
2022-08-24T10:18:52.849Z,2688.00
2022-08-24T10:19:51.782Z,2672.00
2022-08-24T10:20:51.897Z,2660.00
2022-08-24T10:21:51.758Z,2664.00
2022-08-24T10:22:51.751Z,2644.00
2022-08-24T10:23:52.357Z,2636.00
2022-08-24T10:24:51.728Z,2628.00
2022-08-24T10:25:51.740Z,2624.00
2022-08-24T10:26:51.707Z,2616.00
2022-08-24T10:27:51.691Z,2624.00
2022-08-24T10:28:51.688Z,2620.00
2022-08-24T10:29:51.693Z,2608.00
2022-08-24T10:30:51.666Z,2600.00
2022-08-24T10:31:51.723Z,2596.00
2022-08-24T10:32:51.642Z,2596.00
2022-08-24T10:33:53.391Z,2600.00
2022-08-24T10:34:51.619Z,2600.00
2022-08-24T10:35:51.610Z,2600.00
2022-08-24T10:36:51.594Z,2604.00
2022-08-24T10:37:51.615Z,2592.00
2022-08-24T10:38:51.572Z,2572.00
2022-08-24T10:39:51.669Z,2544.00
2022-08-24T10:40:51.559Z,2532.00
2022-08-24T10:41:51.576Z,2512.00
2022-08-24T10:42:51.554Z,2488.00
2022-08-24T10:43:51.521Z,2468.00
2022-08-24T10:44:51.530Z,2456.00
2022-08-24T10:45:54.469Z,2444.00
2022-08-24T10:46:55.447Z,2420.00
2022-08-24T10:47:52.515Z,2404.00
2022-08-24T10:48:51.469Z,2388.00
2022-08-24T10:49:51.462Z,2364.00
2022-08-24T10:50:51.444Z,2348.00
2022-08-24T10:51:54.390Z,2336.00
2022-08-24T10:52:51.425Z,2308.00
2022-08-24T10:53:51.447Z,2288.00
2022-08-24T10:54:51.405Z,2268.00
2022-08-24T10:55:51.385Z,2248.00
2022-08-24T10:56:51.387Z,2232.00
2022-08-24T10:57:51.373Z,2220.00
2022-08-24T10:58:51.400Z,2204.00
2022-08-24T10:59:51.373Z,2188.00
2022-08-24T11:00:51.359Z,2168.00
2022-08-24T11:01:53.901Z,2152.00
2022-08-24T11:02:51.325Z,2140.00
2022-08-24T11:03:51.302Z,2132.00
2022-08-24T11:04:51.296Z,2132.00
2022-08-24T11:05:51.297Z,2136.00
2022-08-24T11:06:51.284Z,2136.00
2022-08-24T11:07:51.272Z,2140.00
2022-08-24T11:08:51.263Z,2160.00
2022-08-24T11:09:51.263Z,2196.00
2022-08-24T11:10:51.230Z,2244.00
2022-08-24T11:11:51.222Z,2300.00
2022-08-24T11:12:51.243Z,2348.00
2022-08-24T11:13:51.190Z,2384.00
2022-08-24T11:14:51.192Z,2416.00
2022-08-24T11:15:51.504Z,2444.00
2022-08-24T11:16:55.783Z,2484.00
2022-08-24T11:17:52.146Z,2520.00
2022-08-24T11:18:51.873Z,2548.00
2022-08-24T11:19:51.137Z,2580.00
2022-08-24T11:20:51.134Z,2616.00
2022-08-24T11:21:51.412Z,2652.00
2022-08-24T11:22:51.104Z,2684.00
2022-08-24T11:23:51.092Z,2724.00
2022-08-24T11:24:51.080Z,2760.00
2022-08-24T11:25:51.063Z,2796.00
2022-08-24T11:26:53.844Z,2832.00
2022-08-24T11:27:51.093Z,2856.00
2022-08-24T11:28:51.045Z,2888.00
2022-08-24T11:29:51.030Z,2916.00
2022-08-24T11:30:51.909Z,2944.00
2022-08-24T11:31:51.070Z,2972.00
2022-08-24T11:32:50.985Z,3008.00
2022-08-24T11:33:50.989Z,3048.00
2022-08-24T11:34:51.921Z,3080.00
2022-08-24T11:35:50.966Z,3116.00
2022-08-24T11:36:50.943Z,3152.00
2022-08-24T11:37:51.992Z,3188.00
2022-08-24T11:38:50.942Z,3216.00
2022-08-24T11:39:51.059Z,3252.00
2022-08-24T11:40:50.955Z,3276.00
2022-08-24T11:41:50.937Z,3316.00
2022-08-24T11:42:50.887Z,3348.00
2022-08-24T11:44:11.918Z,3384.00
2022-08-24T11:44:57.414Z,3424.00
2022-08-24T11:45:51.960Z,3488.00
2022-08-24T11:46:50.960Z,3524.00
2022-08-24T11:47:51.380Z,3564.00
2022-08-24T11:48:57.384Z,3600.00
2022-08-24T11:50:13.420Z,3640.00
2022-08-24T11:50:50.826Z,3680.00
2022-08-24T11:51:50.803Z,3720.00
2022-08-24T11:52:51.176Z,3756.00
2022-08-24T11:53:50.793Z,3792.00
2022-08-24T11:54:50.773Z,3824.00
2022-08-24T11:55:51.599Z,3856.00
2022-08-24T11:56:51.742Z,3884.00
2022-08-24T11:57:50.745Z,3920.00
2022-08-24T11:58:50.775Z,3948.00
2022-08-24T11:59:50.713Z,3988.00
2022-08-24T12:01:14.395Z,4024.00
2022-08-24T12:01:50.856Z,4052.00
2022-08-24T12:02:50.825Z,4084.00
2022-08-24T12:03:52.730Z,4120.00
2022-08-24T12:05:11.669Z,4160.00
2022-08-24T12:05:50.673Z,4192.00
2022-08-24T12:06:55.717Z,4236.00
2022-08-24T12:07:51.678Z,4268.00
2022-08-24T12:08:56.675Z,4308.00
2022-08-24T12:09:50.626Z,4348.00
2022-08-24T12:10:50.634Z,4392.00
2022-08-24T12:11:50.594Z,4432.00
2022-08-24T12:12:50.583Z,4468.00
2022-08-24T12:13:50.650Z,4504.00
2022-08-24T12:14:52.667Z,4544.00
2022-08-24T12:15:52.266Z,4584.00
2022-08-24T12:16:50.576Z,4624.00
2022-08-24T12:17:50.539Z,4656.00
2022-08-24T12:19:11.524Z,4684.00
2022-08-24T12:19:50.529Z,4716.00
2022-08-24T12:20:51.498Z,4748.00
2022-08-24T12:21:51.392Z,4784.00
2022-08-24T12:22:50.467Z,4816.00
2022-08-24T12:23:50.471Z,4848.00
2022-08-24T12:24:50.453Z,4848.00
2022-08-24T12:25:51.147Z,4888.00
2022-08-24T12:26:50.457Z,4924.00
2022-08-24T12:27:50.415Z,4936.00
2022-08-24T12:28:54.271Z,4956.00
2022-08-24T12:29:50.419Z,4980.00
2022-08-24T12:30:51.460Z,5012.00
2022-08-24T12:31:50.930Z,5040.00